createdAt,value
2023-05-06T00:03:43.303Z,6.90
2023-05-06T00:08:47.028Z,6.47
2023-05-06T00:13:51.411Z,6.97
2023-05-06T00:18:54.461Z,6.90
2023-05-06T00:23:57.425Z,6.33
2023-05-06T00:29:01.891Z,6.90
2023-05-06T00:34:04.934Z,7.50
2023-05-06T00:39:07.946Z,5.97
2023-05-06T00:44:12.333Z,6.20
2023-05-06T00:49:15.448Z,6.30
2023-05-06T00:54:18.779Z,6.97
2023-05-06T00:59:23.710Z,7.00
2023-05-06T01:04:27.042Z,7.00
2023-05-06T01:09:39.848Z,7.57
2023-05-06T01:14:51.135Z,7.73
2023-05-06T01:19:59.505Z,7.80
2023-05-06T01:25:03.874Z,7.40
2023-05-06T01:30:08.314Z,7.13
2023-05-06T01:35:22.239Z,7.90
2023-05-06T01:40:30.256Z,7.97
2023-05-06T01:45:36.473Z,7.50
2023-05-06T01:50:40.196Z,7.57
2023-05-06T01:55:44.575Z,8.23
2023-05-06T02:00:47.897Z,8.13
2023-05-06T02:05:51.400Z,9.23
2023-05-06T02:10:55.930Z,10.17
2023-05-06T02:15:59.506Z,9.33
2023-05-06T02:21:03.213Z,9.83
2023-05-06T02:26:07.638Z,9.67
2023-05-06T02:31:14.770Z,9.40
2023-05-06T02:36:17.766Z,8.50
2023-05-06T02:41:22.104Z,10.27
2023-05-06T02:46:25.474Z,10.03
2023-05-06T02:51:28.453Z,10.23
2023-05-06T02:56:32.772Z,10.20
2023-05-06T03:01:35.860Z,9.30
2023-05-06T03:06:39.088Z,9.30
2023-05-06T03:11:43.496Z,11.43
2023-05-06T03:16:46.605Z,10.10
2023-05-06T03:21:50.840Z,9.20
2023-05-06T03:26:58.622Z,10.73
2023-05-06T03:32:04.747Z,9.17
2023-05-06T03:37:13.276Z,9.07
2023-05-06T03:42:24.570Z,9.30
2023-05-06T03:47:28.037Z,9.43
2023-05-06T03:52:31.640Z,9.77
2023-05-06T03:57:37.529Z,11.03
2023-05-06T04:02:42.799Z,10.63
2023-05-06T04:07:49.669Z,12.40
2023-05-06T04:12:54.330Z,9.80
2023-05-06T04:18:02.586Z,9.93
2023-05-06T04:23:06.126Z,9.93
2023-05-06T04:28:12.848Z,9.57
2023-05-06T04:33:16.714Z,9.67
2023-05-06T04:38:21.725Z,10.37
2023-05-06T04:43:28.262Z,9.80
2023-05-06T04:48:40.361Z,9.47
2023-05-06T04:53:44.459Z,9.23
2023-05-06T04:58:48.822Z,10.30
2023-05-06T05:03:53.883Z,9.70
2023-05-06T05:08:58.709Z,9.10
2023-05-06T05:14:04.239Z,9.40
2023-05-06T05:19:09.057Z,10.00
2023-05-06T05:24:12.983Z,9.67
2023-05-06T05:29:18.324Z,9.80
2023-05-06T05:34:23.206Z,10.60
2023-05-06T05:39:27.664Z,9.07
2023-05-06T05:44:33.510Z,10.57
2023-05-06T05:49:37.138Z,9.57
2023-05-06T05:54:40.861Z,12.53
2023-05-06T05:59:45.485Z,9.37
2023-05-06T06:04:48.786Z,9.47
2023-05-06T06:09:51.887Z,9.80
2023-05-06T06:14:56.473Z,10.00
2023-05-06T06:20:02.279Z,9.93
2023-05-06T06:25:05.727Z,10.37
2023-05-06T06:30:11.365Z,10.10
2023-05-06T06:35:16.031Z,11.23
2023-05-06T06:40:19.211Z,10.52
2023-05-06T06:45:24.468Z,9.20
2023-05-06T06:50:27.960Z,9.17
2023-05-06T06:55:31.047Z,9.55
2023-05-06T07:00:35.702Z,8.73
2023-05-06T07:05:38.693Z,9.23
2023-05-06T07:10:41.743Z,8.98
2023-05-06T07:15:46.349Z,9.55
2023-05-06T07:20:51.742Z,9.93
2023-05-06T07:25:54.841Z,10.07
2023-05-06T07:30:59.222Z,11.45
2023-05-06T07:36:02.431Z,14.88
2023-05-06T07:41:06.278Z,13.18
2023-05-06T07:46:10.901Z,11.18
2023-05-06T07:51:14.352Z,14.38
2023-05-06T07:56:17.433Z,12.57
2023-05-06T08:01:22.167Z,12.50
2023-05-06T08:06:25.464Z,10.95
2023-05-06T08:11:29.125Z,11.27
2023-05-06T08:16:33.940Z,10.95
2023-05-06T08:21:37.112Z,10.80
2023-05-06T08:26:40.404Z,11.13
2023-05-06T08:31:45.122Z,11.80
2023-05-06T08:36:48.576Z,11.02
2023-05-06T08:41:53.855Z,11.95
2023-05-06T08:46:58.770Z,10.73
2023-05-06T08:52:06.104Z,11.48
2023-05-06T08:57:13.687Z,11.30
2023-05-06T09:02:18.498Z,10.13
2023-05-06T09:07:22.534Z,9.55
2023-05-06T09:12:25.957Z,9.90
2023-05-06T09:17:32.830Z,9.25
2023-05-06T09:22:39.912Z,8.75
2023-05-06T09:27:43.269Z,9.38
2023-05-06T09:32:49.940Z,10.05
2023-05-06T09:37:53.853Z,8.05
2023-05-06T09:42:58.184Z,11.02
2023-05-06T09:48:03.404Z,7.65
2023-05-06T09:53:07.799Z,8.25
2023-05-06T09:58:13.389Z,8.02
2023-05-06T10:03:19.990Z,9.40
2023-05-06T10:08:24.920Z,7.10
2023-05-06T10:13:28.314Z,6.63
2023-05-06T10:18:36.526Z,6.43
2023-05-06T10:23:45.356Z,7.00
2023-05-06T10:28:54.833Z,6.28
2023-05-06T10:34:04.167Z,8.60
2023-05-06T10:39:13.644Z,6.63
2023-05-06T10:44:19.737Z,8.07
2023-05-06T10:49:24.859Z,6.43
2023-05-06T10:54:30.421Z,7.20
2023-05-06T10:59:33.570Z,6.15
2023-05-06T11:04:38.089Z,6.82
2023-05-06T11:09:59.820Z,6.95
2023-05-06T11:15:21.151Z,5.95
2023-05-06T11:20:27.356Z,6.22
2023-05-06T11:25:47.020Z,7.68
2023-05-06T11:30:56.610Z,7.28
2023-05-06T11:36:01.572Z,6.25
2023-05-06T11:41:05.108Z,7.47
2023-05-06T11:46:08.387Z,6.15
2023-05-06T11:51:12.930Z,7.70
2023-05-06T11:56:15.981Z,5.18
2023-05-06T12:01:18.997Z,5.68
2023-05-06T12:06:33.880Z,7.82
2023-05-06T12:11:38.057Z,7.40
2023-05-06T12:16:42.305Z,7.65
2023-05-06T12:21:47.456Z,6.50
2023-05-06T12:26:52.021Z,6.35
2023-05-06T12:32:09.375Z,6.05
2023-05-06T12:37:25.565Z,5.63
2023-05-06T12:42:29.216Z,3.53
2023-05-06T12:47:32.212Z,3.67
2023-05-06T12:52:45.171Z,5.00
2023-05-06T12:57:49.649Z,3.35
2023-05-06T13:02:52.672Z,2.47
2023-05-06T13:07:57.090Z,2.00
2023-05-06T13:13:00.171Z,4.00
2023-05-06T13:18:03.464Z,1.85
2023-05-06T13:23:08.017Z,2.88
2023-05-06T13:28:11.554Z,1.50
2023-05-06T13:33:15.052Z,2.17
2023-05-06T13:38:19.964Z,2.80
2023-05-06T13:43:24.911Z,3.05
2023-05-06T13:48:28.284Z,3.10
2023-05-06T13:53:33.272Z,2.70
2023-05-06T13:58:36.565Z,3.22
2023-05-06T14:03:39.603Z,1.92
2023-05-06T14:08:44.494Z,2.08
2023-05-06T14:13:47.620Z,2.65
2023-05-06T14:18:53.796Z,2.78
2023-05-06T14:23:58.754Z,1.88
2023-05-06T14:29:02.118Z,3.53
2023-05-06T14:34:05.608Z,3.25
2023-05-06T14:39:10.156Z,2.13
2023-05-06T14:44:13.262Z,2.35
2023-05-06T14:49:16.536Z,3.95
2023-05-06T14:54:21.190Z,3.05
2023-05-06T14:59:24.229Z,3.55
2023-05-06T15:04:27.452Z,3.03
2023-05-06T15:09:32.011Z,1.75
2023-05-06T15:14:35.094Z,1.38
2023-05-06T15:19:38.326Z,4.07
2023-05-06T15:24:42.971Z,1.45
2023-05-06T15:29:46.718Z,3.35
2023-05-06T15:34:51.179Z,5.82
2023-05-06T15:39:56.001Z,2.03
2023-05-06T15:44:59.612Z,3.38
2023-05-06T15:50:06.832Z,2.55
2023-05-06T15:55:17.061Z,3.63
2023-05-06T16:00:20.682Z,2.70
2023-05-06T16:05:24.203Z,2.58
2023-05-06T16:10:28.965Z,2.78
2023-05-06T16:15:32.353Z,6.85
2023-05-06T16:20:35.748Z,3.00
2023-05-06T16:25:40.944Z,3.55
2023-05-06T16:30:44.943Z,2.22
2023-05-06T16:35:48.705Z,4.97
2023-05-06T16:40:55.301Z,4.35
2023-05-06T16:45:58.620Z,4.70
2023-05-06T16:51:01.633Z,4.43
2023-05-06T16:56:06.622Z,4.65
2023-05-06T17:01:09.810Z,9.13
2023-05-06T17:06:13.052Z,8.13
2023-05-06T17:11:18.006Z,7.05
2023-05-06T17:16:22.757Z,7.07
2023-05-06T17:21:25.796Z,6.88
2023-05-06T17:26:33.938Z,8.48
2023-05-06T17:31:37.193Z,7.88
2023-05-06T17:36:41.007Z,8.98
2023-05-06T17:41:45.610Z,10.05
2023-05-06T17:46:48.669Z,11.30
2023-05-06T17:51:52.047Z,11.23
2023-05-06T17:56:56.653Z,11.18
2023-05-06T18:02:00.392Z,11.20
2023-05-06T18:07:03.966Z,9.65
2023-05-06T18:12:09.124Z,11.02
2023-05-06T18:17:12.795Z,9.95
2023-05-06T18:22:15.892Z,11.00
2023-05-06T18:27:20.904Z,12.07
2023-05-06T18:32:24.304Z,13.57
2023-05-06T18:37:29.191Z,12.75
2023-05-06T18:42:35.298Z,12.77
2023-05-06T18:47:40.300Z,10.75
2023-05-06T18:52:43.442Z,9.10
2023-05-06T18:57:48.033Z,9.85
2023-05-06T19:02:51.586Z,8.75
2023-05-06T19:07:54.793Z,9.80
2023-05-06T19:12:59.176Z,9.82
2023-05-06T19:18:03.946Z,12.60
2023-05-06T19:23:07.228Z,12.88
2023-05-06T19:28:11.939Z,10.02
2023-05-06T19:33:15.360Z,11.02
2023-05-06T19:38:19.830Z,9.57
2023-05-06T19:43:24.887Z,10.27
2023-05-06T19:48:28.001Z,10.73
2023-05-06T19:53:31.029Z,11.82
2023-05-06T19:58:35.632Z,11.60
2023-05-06T20:03:39.051Z,13.23
2023-05-06T20:08:42.316Z,12.07
2023-05-06T20:13:49.899Z,13.50
2023-05-06T20:18:54.216Z,14.90
2023-05-06T20:23:57.225Z,12.38
2023-05-06T20:29:02.468Z,14.23
2023-05-06T20:34:05.509Z,12.88
2023-05-06T20:39:09.994Z,14.38
2023-05-06T20:44:14.589Z,13.13
2023-05-06T20:49:17.825Z,13.73
2023-05-06T20:54:20.799Z,15.38
2023-05-06T20:59:28.586Z,15.25
2023-05-06T21:04:31.730Z,14.10
2023-05-06T21:09:34.869Z,17.60
2023-05-06T21:14:39.724Z,16.08
2023-05-06T21:19:42.807Z,16.10
2023-05-06T21:24:45.859Z,17.10
2023-05-06T21:29:51.611Z,16.23
2023-05-06T21:34:54.733Z,15.52
2023-05-06T21:39:57.737Z,15.05
2023-05-06T21:45:02.254Z,14.50
2023-05-06T21:50:06.279Z,15.13
2023-05-06T21:55:09.968Z,17.35
2023-05-06T22:00:15.985Z,18.13
2023-05-06T22:05:19.202Z,16.40
2023-05-06T22:10:22.301Z,15.65
2023-05-06T22:15:26.680Z,14.20
2023-05-06T22:20:30.873Z,15.60
2023-05-06T22:25:34.145Z,15.75
2023-05-06T22:30:38.709Z,17.17
2023-05-06T22:35:41.901Z,17.03
2023-05-06T22:40:44.975Z,17.00
2023-05-06T22:45:49.745Z,17.13
2023-05-06T22:50:53.141Z,16.50
2023-05-06T22:55:56.164Z,15.25
2023-05-06T23:01:01.381Z,17.70
2023-05-06T23:06:06.269Z,17.10
2023-05-06T23:11:09.310Z,19.95
2023-05-06T23:16:14.685Z,17.37
2023-05-06T23:21:18.223Z,18.70
2023-05-06T23:26:21.331Z,21.03
2023-05-06T23:31:26.029Z,15.52
2023-05-06T23:36:29.174Z,15.13
2023-05-06T23:41:32.252Z,15.65
2023-05-06T23:46:36.821Z,14.93
2023-05-06T23:51:39.959Z,14.48
2023-05-06T23:56:43.006Z,14.53
